Airfield :
LOGIN :

Register | Disclaimer

   EN    FR    IT 

 










Legend :    VFR   Marginal VFR   IFR   Intensive IFR   Very Intensive IFR
Visi :
Ceiling :
>= 8 km
>= 3000ft
5 to 8 km
1000 to 3000 ft
1500m to 5 km
500 to 1000 ft
800 to 1500m
200 to 500 ft
< 800m
< 200 ft
Symbols :   Thunderstorms  Fog  Heavy snow  Heavy precipitations  Wind > 20 kt
SIGMETs :     Misc.  Thunderstorms  Icing  Turbulence  Mountain Waves  Volcanic Ashes






- Airport Elevation : 1260 ft
- IATA code : LDE


LFBT - Tarbes / Ossun

CURRENT METAR :
  • 101830Z AUTO 04003KT CAVOK 15/09 Q1010 TEMPO 4000 SHRA BKN030 FEW040CB BKN050TCU

EXPIRED METARs :
  • 101800Z AUTO 04003KT 9999 FEW110 16/09 Q1009 TEMPO 4000 SHRA BKN030 FEW040CB BKN050TCU
  • 101730Z AUTO 03004KT 9999 FEW092 SCT110 17/09 Q1009 TEMPO 4000 SHRA BKN030 FEW040CB BKN050TCU
  • 101700Z AUTO VRB03KT CAVOK 18/09 Q1009 TEMPO 4000 SHRA BKN030 FEW040CB BKN050TCU
  • 101630Z AUTO 07004KT 010V120 9999 SCT070/// BKN082/// BKN120/// ///CB 18/09 Q1009 TEMPO 4000 SHRA
  • 101600Z AUTO 04005KT 020V090 9999 -RA FEW026 OVC072 18/09 Q1009 TEMPO 4000 SHRA BKN030 FEW040CB BKN050TCU

TAF TAF LFBT
Valid from the 10 at 18:00 until the 11 at 18:00 UTC


101700Z 1018/1118 03006KT 9999 SCT060 BKN080
TEMPO 1018/1020 4000 SHRA BKN030 FEW040CB BKN050TCU
PROB30
TEMPO 1018/1019 -TSRA
BECMG 1101/1103 RA BKN020
TEMPO 1103/1110 2000 RA BKN012 BKN020 BKN055
TEMPO 1113/1115 SCT012TCU
BECMG 1115/1117 NSW



MET'MAP, your aeronautical weather chart ! - Copyright ORBIFLY December 2007 - Disclaimer

ORBIFLY MET'MAP TEAM :

Programming & Development : Alexandra Zaïnal
Concept & original design : Baudouin d'Aumeries
Assistance for programming : Marc-Olivier Méhu
Technical & hardware support : Manuel Goepfert

Contact : metmap@orbifly.com




SOURCES & CREDITS :

   NOAA